sensor_id;sensor_type;location;lat;lon;timestamp;P1;durP1;ratioP1;P2;durP2;ratioP2
2638;SDS011;1329;51.384;7.122;2024-03-08T00:00:16;21.57;;;18.57;;
2638;SDS011;1329;51.384;7.122;2024-03-08T00:02:44;21.13;;;18.83;;
2638;SDS011;1329;51.384;7.122;2024-03-08T00:05:12;19.83;;;17.73;;
2638;SDS011;1329;51.384;7.122;2024-03-08T00:07:40;20.47;;;18.27;;
2638;SDS011;1329;51.384;7.122;2024-03-08T00:10:10;20.73;;;18.57;;
2638;SDS011;1329;51.384;7.122;2024-03-08T00:12:39;20.87;;;18.33;;
2638;SDS011;1329;51.384;7.122;2024-03-08T00:15:07;20.40;;;17.80;;
2638;SDS011;1329;51.384;7.122;2024-03-08T00:17:35;20.27;;;18.07;;
2638;SDS011;1329;51.384;7.122;2024-03-08T00:20:03;21.60;;;19.07;;
2638;SDS011;1329;51.384;7.122;2024-03-08T00:22:33;21.13;;;18.60;;
2638;SDS011;1329;51.384;7.122;2024-03-08T00:25:01;21.73;;;18.17;;
2638;SDS011;1329;51.384;7.122;2024-03-08T00:27:29;20.27;;;18.17;;
2638;SDS011;1329;51.384;7.122;2024-03-08T00:29:56;21.27;;;18.63;;
2638;SDS011;1329;51.384;7.122;2024-03-08T00:32:23;21.33;;;19.03;;
2638;SDS011;1329;51.384;7.122;2024-03-08T00:34:52;22.10;;;18.90;;
2638;SDS011;1329;51.384;7.122;2024-03-08T00:37:19;21.20;;;18.93;;
2638;SDS011;1329;51.384;7.122;2024-03-08T00:39:47;20.77;;;18.40;;
2638;SDS011;1329;51.384;7.122;2024-03-08T00:42:14;21.23;;;18.80;;
2638;SDS011;1329;51.384;7.122;2024-03-08T00:44:43;20.80;;;18.30;;
2638;SDS011;1329;51.384;7.122;2024-03-08T00:47:10;22.17;;;19.87;;
2638;SDS011;1329;51.384;7.122;2024-03-08T00:49:37;22.57;;;19.30;;
2638;SDS011;1329;51.384;7.122;2024-03-08T00:52:04;21.33;;;19.03;;
2638;SDS011;1329;51.384;7.122;2024-03-08T00:54:33;21.43;;;19.20;;
2638;SDS011;1329;51.384;7.122;2024-03-08T00:57:15;21.50;;;19.00;;
2638;SDS011;1329;51.384;7.122;2024-03-08T00:59:43;21.30;;;18.90;;
2638;SDS011;1329;51.384;7.122;2024-03-08T01:02:11;20.00;;;17.90;;
2638;SDS011;1329;51.384;7.122;2024-03-08T01:04:38;21.53;;;19.20;;
2638;SDS011;1329;51.384;7.122;2024-03-08T01:07:05;20.97;;;18.23;;
2638;SDS011;1329;51.384;7.122;2024-03-08T01:09:32;21.67;;;18.80;;
2638;SDS011;1329;51.384;7.122;2024-03-08T01:11:59;22.00;;;18.90;;
2638;SDS011;1329;51.384;7.122;2024-03-08T01:14:26;22.30;;;19.53;;
2638;SDS011;1329;51.384;7.122;2024-03-08T01:16:57;21.17;;;18.50;;
2638;SDS011;1329;51.384;7.122;2024-03-08T01:19:24;22.17;;;19.00;;
2638;SDS011;1329;51.384;7.122;2024-03-08T01:21:51;23.00;;;19.57;;
2638;SDS011;1329;51.384;7.122;2024-03-08T01:24:20;21.67;;;18.93;;
2638;SDS011;1329;51.384;7.122;2024-03-08T01:26:48;21.67;;;19.33;;
2638;SDS011;1329;51.384;7.122;2024-03-08T01:29:15;24.00;;;19.77;;
2638;SDS011;1329;51.384;7.122;2024-03-08T01:31:42;21.80;;;19.10;;
2638;SDS011;1329;51.384;7.122;2024-03-08T01:34:10;21.20;;;18.50;;
2638;SDS011;1329;51.384;7.122;2024-03-08T01:36:37;21.80;;;19.47;;
2638;SDS011;1329;51.384;7.122;2024-03-08T01:39:04;22.23;;;19.80;;
2638;SDS011;1329;51.384;7.122;2024-03-08T01:41:34;23.80;;;20.30;;
2638;SDS011;1329;51.384;7.122;2024-03-08T01:44:01;22.23;;;19.07;;
2638;SDS011;1329;51.384;7.122;2024-03-08T01:46:29;20.83;;;18.53;;
2638;SDS011;1329;51.384;7.122;2024-03-08T01:48:56;22.03;;;19.70;;
2638;SDS011;1329;51.384;7.122;2024-03-08T01:51:24;20.70;;;18.07;;
2638;SDS011;1329;51.384;7.122;2024-03-08T01:53:53;22.53;;;19.67;;
2638;SDS011;1329;51.384;7.122;2024-03-08T01:56:23;21.23;;;19.00;;
2638;SDS011;1329;51.384;7.122;2024-03-08T01:58:51;21.33;;;18.87;;
2638;SDS011;1329;51.384;7.122;2024-03-08T02:01:18;22.50;;;19.43;;
2638;SDS011;1329;51.384;7.122;2024-03-08T02:03:45;22.80;;;19.63;;
2638;SDS011;1329;51.384;7.122;2024-03-08T02:06:12;22.30;;;19.83;;
2638;SDS011;1329;51.384;7.122;2024-03-08T02:08:42;24.20;;;20.20;;
2638;SDS011;1329;51.384;7.122;2024-03-08T02:11:10;22.57;;;19.93;;
2638;SDS011;1329;51.384;7.122;2024-03-08T02:13:38;22.87;;;19.33;;
2638;SDS011;1329;51.384;7.122;2024-03-08T02:16:05;22.10;;;19.47;;
2638;SDS011;1329;51.384;7.122;2024-03-08T02:18:33;22.80;;;20.27;;
2638;SDS011;1329;51.384;7.122;2024-03-08T02:21:02;24.37;;;20.70;;
2638;SDS011;1329;51.384;7.122;2024-03-08T02:23:31;23.77;;;19.03;;
2638;SDS011;1329;51.384;7.122;2024-03-08T02:25:59;23.23;;;20.53;;
2638;SDS011;1329;51.384;7.122;2024-03-08T02:28:26;25.47;;;20.10;;
2638;SDS011;1329;51.384;7.122;2024-03-08T02:31:01;23.50;;;20.63;;
2638;SDS011;1329;51.384;7.122;2024-03-08T02:33:33;24.00;;;20.30;;
2638;SDS011;1329;51.384;7.122;2024-03-08T02:35:59;23.47;;;20.53;;
2638;SDS011;1329;51.384;7.122;2024-03-08T02:38:27;26.00;;;20.57;;
2638;SDS011;1329;51.384;7.122;2024-03-08T02:40:57;22.50;;;20.03;;
2638;SDS011;1329;51.384;7.122;2024-03-08T02:43:24;24.30;;;20.70;;
2638;SDS011;1329;51.384;7.122;2024-03-08T02:45:53;26.23;;;21.27;;
2638;SDS011;1329;51.384;7.122;2024-03-08T02:48:20;24.07;;;20.27;;
2638;SDS011;1329;51.384;7.122;2024-03-08T02:50:47;25.33;;;20.90;;
2638;SDS011;1329;51.384;7.122;2024-03-08T02:53:17;24.40;;;20.97;;
2638;SDS011;1329;51.384;7.122;2024-03-08T02:55:44;25.50;;;21.33;;
2638;SDS011;1329;51.384;7.122;2024-03-08T02:58:11;23.80;;;21.07;;
2638;SDS011;1329;51.384;7.122;2024-03-08T03:00:39;24.53;;;20.60;;
2638;SDS011;1329;51.384;7.122;2024-03-08T03:03:06;25.43;;;21.33;;
2638;SDS011;1329;51.384;7.122;2024-03-08T03:05:33;26.73;;;21.97;;
2638;SDS011;1329;51.384;7.122;2024-03-08T03:08:00;25.87;;;21.40;;
2638;SDS011;1329;51.384;7.122;2024-03-08T03:10:30;26.53;;;21.60;;
2638;SDS011;1329;51.384;7.122;2024-03-08T03:12:57;24.03;;;20.87;;
2638;SDS011;1329;51.384;7.122;2024-03-08T03:15:24;25.73;;;21.77;;
2638;SDS011;1329;51.384;7.122;2024-03-08T03:17:51;27.77;;;22.77;;
2638;SDS011;1329;51.384;7.122;2024-03-08T03:20:18;26.57;;;21.90;;
2638;SDS011;1329;51.384;7.122;2024-03-08T03:22:51;25.40;;;21.17;;
2638;SDS011;1329;51.384;7.122;2024-03-08T03:25:19;25.23;;;21.30;;
2638;SDS011;1329;51.384;7.122;2024-03-08T03:27:51;26.10;;;21.73;;
2638;SDS011;1329;51.384;7.122;2024-03-08T03:30:21;25.73;;;21.57;;
2638;SDS011;1329;51.384;7.122;2024-03-08T03:32:48;24.53;;;21.27;;
2638;SDS011;1329;51.384;7.122;2024-03-08T03:35:16;24.20;;;21.07;;
2638;SDS011;1329;51.384;7.122;2024-03-08T03:37:47;24.13;;;20.97;;
2638;SDS011;1329;51.384;7.122;2024-03-08T03:40:26;26.07;;;21.77;;
2638;SDS011;1329;51.384;7.122;2024-03-08T03:42:55;24.67;;;21.47;;
2638;SDS011;1329;51.384;7.122;2024-03-08T03:45:22;27.43;;;21.73;;
2638;SDS011;1329;51.384;7.122;2024-03-08T03:47:49;27.33;;;21.57;;
2638;SDS011;1329;51.384;7.122;2024-03-08T03:50:16;25.73;;;21.17;;
2638;SDS011;1329;51.384;7.122;2024-03-08T03:52:45;26.70;;;22.50;;
2638;SDS011;1329;51.384;7.122;2024-03-08T03:55:12;24.47;;;20.80;;
2638;SDS011;1329;51.384;7.122;2024-03-08T03:57:39;26.40;;;21.83;;
2638;SDS011;1329;51.384;7.122;2024-03-08T04:00:08;26.70;;;21.90;;
2638;SDS011;1329;51.384;7.122;2024-03-08T04:02:36;24.57;;;20.67;;
2638;SDS011;1329;51.384;7.122;2024-03-08T04:05:04;23.63;;;20.47;;
2638;SDS011;1329;51.384;7.122;2024-03-08T04:07:33;25.63;;;21.67;;
2638;SDS011;1329;51.384;7.122;2024-03-08T04:10:00;25.53;;;20.40;;
2638;SDS011;1329;51.384;7.122;2024-03-08T04:12:28;24.40;;;21.10;;
2638;SDS011;1329;51.384;7.122;2024-03-08T04:14:55;24.90;;;19.90;;
2638;SDS011;1329;51.384;7.122;2024-03-08T04:17:23;26.00;;;20.53;;
2638;SDS011;1329;51.384;7.122;2024-03-08T04:19:51;25.63;;;20.87;;
2638;SDS011;1329;51.384;7.122;2024-03-08T04:22:18;24.50;;;20.80;;
2638;SDS011;1329;51.384;7.122;2024-03-08T04:24:46;25.23;;;20.37;;
2638;SDS011;1329;51.384;7.122;2024-03-08T04:27:13;28.30;;;23.07;;
2638;SDS011;1329;51.384;7.122;2024-03-08T04:29:40;27.83;;;22.20;;
2638;SDS011;1329;51.384;7.122;2024-03-08T04:32:07;28.30;;;21.80;;
2638;SDS011;1329;51.384;7.122;2024-03-08T04:34:39;25.70;;;20.90;;
2638;SDS011;1329;51.384;7.122;2024-03-08T04:37:06;28.30;;;22.30;;
2638;SDS011;1329;51.384;7.122;2024-03-08T04:39:36;27.13;;;21.87;;
2638;SDS011;1329;51.384;7.122;2024-03-08T04:42:03;26.73;;;21.87;;
2638;SDS011;1329;51.384;7.122;2024-03-08T04:44:34;29.47;;;23.30;;
2638;SDS011;1329;51.384;7.122;2024-03-08T04:47:02;28.17;;;21.57;;
2638;SDS011;1329;51.384;7.122;2024-03-08T04:49:31;25.63;;;21.47;;
2638;SDS011;1329;51.384;7.122;2024-03-08T04:52:01;27.67;;;22.20;;
2638;SDS011;1329;51.384;7.122;2024-03-08T04:54:28;24.87;;;20.80;;
2638;SDS011;1329;51.384;7.122;2024-03-08T04:56:55;26.87;;;21.23;;
2638;SDS011;1329;51.384;7.122;2024-03-08T04:59:22;26.40;;;21.63;;
2638;SDS011;1329;51.384;7.122;2024-03-08T05:01:50;27.00;;;21.50;;
2638;SDS011;1329;51.384;7.122;2024-03-08T05:04:17;25.70;;;21.13;;
2638;SDS011;1329;51.384;7.122;2024-03-08T05:06:44;27.50;;;22.73;;
2638;SDS011;1329;51.384;7.122;2024-03-08T05:09:12;29.60;;;23.13;;
2638;SDS011;1329;51.384;7.122;2024-03-08T05:11:40;30.53;;;22.90;;
2638;SDS011;1329;51.384;7.122;2024-03-08T05:14:07;30.27;;;22.93;;
2638;SDS011;1329;51.384;7.122;2024-03-08T05:16:34;26.93;;;22.73;;
2638;SDS011;1329;51.384;7.122;2024-03-08T05:19:02;27.73;;;22.43;;
2638;SDS011;1329;51.384;7.122;2024-03-08T05:21:29;27.30;;;21.63;;
2638;SDS011;1329;51.384;7.122;2024-03-08T05:23:56;27.37;;;22.43;;
2638;SDS011;1329;51.384;7.122;2024-03-08T05:26:24;27.87;;;22.00;;
2638;SDS011;1329;51.384;7.122;2024-03-08T05:28:51;30.37;;;23.80;;
2638;SDS011;1329;51.384;7.122;2024-03-08T05:31:19;27.13;;;21.67;;
2638;SDS011;1329;51.384;7.122;2024-03-08T05:33:48;28.27;;;22.73;;
2638;SDS011;1329;51.384;7.122;2024-03-08T05:36:15;27.20;;;21.50;;
2638;SDS011;1329;51.384;7.122;2024-03-08T05:38:42;26.50;;;21.43;;
2638;SDS011;1329;51.384;7.122;2024-03-08T05:41:09;26.97;;;21.87;;
2638;SDS011;1329;51.384;7.122;2024-03-08T05:43:40;29.53;;;23.13;;
2638;SDS011;1329;51.384;7.122;2024-03-08T05:46:07;29.57;;;22.93;;
2638;SDS011;1329;51.384;7.122;2024-03-08T05:48:35;28.77;;;23.40;;
2638;SDS011;1329;51.384;7.122;2024-03-08T05:51:02;29.10;;;22.73;;
2638;SDS011;1329;51.384;7.122;2024-03-08T05:53:33;26.87;;;22.77;;
2638;SDS011;1329;51.384;7.122;2024-03-08T05:56:00;27.30;;;21.90;;
2638;SDS011;1329;51.384;7.122;2024-03-08T05:58:28;29.73;;;23.33;;
2638;SDS011;1329;51.384;7.122;2024-03-08T06:00:57;30.80;;;23.47;;
2638;SDS011;1329;51.384;7.122;2024-03-08T06:03:24;29.03;;;23.43;;
2638;SDS011;1329;51.384;7.122;2024-03-08T06:05:51;29.83;;;22.70;;
2638;SDS011;1329;51.384;7.122;2024-03-08T06:08:18;28.97;;;23.13;;
2638;SDS011;1329;51.384;7.122;2024-03-08T06:10:45;28.53;;;23.10;;
2638;SDS011;1329;51.384;7.122;2024-03-08T06:13:17;30.37;;;23.83;;
2638;SDS011;1329;51.384;7.122;2024-03-08T06:15:47;28.50;;;23.40;;
2638;SDS011;1329;51.384;7.122;2024-03-08T06:18:16;29.27;;;22.63;;
2638;SDS011;1329;51.384;7.122;2024-03-08T06:20:43;30.70;;;23.57;;
2638;SDS011;1329;51.384;7.122;2024-03-08T06:23:11;30.73;;;24.90;;
2638;SDS011;1329;51.384;7.122;2024-03-08T06:25:39;31.17;;;24.10;;
2638;SDS011;1329;51.384;7.122;2024-03-08T06:28:05;29.77;;;22.63;;
2638;SDS011;1329;51.384;7.122;2024-03-08T06:30:32;29.60;;;23.20;;
2638;SDS011;1329;51.384;7.122;2024-03-08T06:32:59;28.87;;;23.50;;
2638;SDS011;1329;51.384;7.122;2024-03-08T06:35:28;29.90;;;23.20;;
2638;SDS011;1329;51.384;7.122;2024-03-08T06:37:57;29.13;;;22.90;;
2638;SDS011;1329;51.384;7.122;2024-03-08T06:40:24;28.77;;;22.43;;
2638;SDS011;1329;51.384;7.122;2024-03-08T06:42:50;29.30;;;22.70;;
2638;SDS011;1329;51.384;7.122;2024-03-08T06:45:18;26.40;;;21.40;;
2638;SDS011;1329;51.384;7.122;2024-03-08T06:51:29;25.23;;;20.50;;
2638;SDS011;1329;51.384;7.122;2024-03-08T06:53:57;28.93;;;22.83;;
2638;SDS011;1329;51.384;7.122;2024-03-08T06:56:24;26.73;;;21.63;;
2638;SDS011;1329;51.384;7.122;2024-03-08T06:58:51;28.77;;;22.10;;
2638;SDS011;1329;51.384;7.122;2024-03-08T07:01:18;30.13;;;24.17;;
2638;SDS011;1329;51.384;7.122;2024-03-08T07:03:45;29.07;;;23.00;;
2638;SDS011;1329;51.384;7.122;2024-03-08T07:06:12;25.40;;;21.67;;
2638;SDS011;1329;51.384;7.122;2024-03-08T07:08:42;27.93;;;22.60;;
2638;SDS011;1329;51.384;7.122;2024-03-08T07:11:11;29.77;;;23.30;;
2638;SDS011;1329;51.384;7.122;2024-03-08T07:13:40;29.50;;;22.83;;
2638;SDS011;1329;51.384;7.122;2024-03-08T07:16:08;32.90;;;23.37;;
2638;SDS011;1329;51.384;7.122;2024-03-08T07:18:36;28.83;;;23.73;;
2638;SDS011;1329;51.384;7.122;2024-03-08T07:21:05;30.30;;;23.93;;
2638;SDS011;1329;51.384;7.122;2024-03-08T07:23:31;29.87;;;22.70;;
2638;SDS011;1329;51.384;7.122;2024-03-08T07:26:29;29.00;;;22.17;;
2638;SDS011;1329;51.384;7.122;2024-03-08T07:28:56;30.07;;;22.97;;
2638;SDS011;1329;51.384;7.122;2024-03-08T07:31:25;32.63;;;25.00;;
2638;SDS011;1329;51.384;7.122;2024-03-08T07:36:51;29.40;;;24.03;;
2638;SDS011;1329;51.384;7.122;2024-03-08T07:39:17;36.03;;;25.50;;
2638;SDS011;1329;51.384;7.122;2024-03-08T07:41:46;33.57;;;25.67;;
2638;SDS011;1329;51.384;7.122;2024-03-08T07:44:13;34.30;;;25.93;;
2638;SDS011;1329;51.384;7.122;2024-03-08T07:46:40;33.80;;;26.43;;
2638;SDS011;1329;51.384;7.122;2024-03-08T07:49:07;34.17;;;27.07;;
2638;SDS011;1329;51.384;7.122;2024-03-08T07:51:36;33.87;;;26.07;;
2638;SDS011;1329;51.384;7.122;2024-03-08T07:54:03;31.97;;;26.13;;
2638;SDS011;1329;51.384;7.122;2024-03-08T07:56:30;33.73;;;26.03;;
2638;SDS011;1329;51.384;7.122;2024-03-08T07:58:58;33.53;;;26.30;;
2638;SDS011;1329;51.384;7.122;2024-03-08T08:01:25;31.17;;;25.27;;
2638;SDS011;1329;51.384;7.122;2024-03-08T08:03:52;33.63;;;25.40;;
2638;SDS011;1329;51.384;7.122;2024-03-08T08:06:19;31.73;;;25.00;;
2638;SDS011;1329;51.384;7.122;2024-03-08T08:08:46;31.63;;;25.07;;
2638;SDS011;1329;51.384;7.122;2024-03-08T08:11:13;31.27;;;25.23;;
2638;SDS011;1329;51.384;7.122;2024-03-08T08:13:40;30.80;;;25.27;;
2638;SDS011;1329;51.384;7.122;2024-03-08T08:16:09;31.57;;;25.30;;
2638;SDS011;1329;51.384;7.122;2024-03-08T08:18:47;33.53;;;24.80;;
2638;SDS011;1329;51.384;7.122;2024-03-08T08:21:16;32.20;;;25.60;;
2638;SDS011;1329;51.384;7.122;2024-03-08T08:26:48;32.80;;;25.40;;
2638;SDS011;1329;51.384;7.122;2024-03-08T08:29:15;29.33;;;24.33;;
2638;SDS011;1329;51.384;7.122;2024-03-08T08:34:45;31.87;;;24.17;;
2638;SDS011;1329;51.384;7.122;2024-03-08T08:37:27;28.30;;;23.07;;
2638;SDS011;1329;51.384;7.122;2024-03-08T08:39:58;32.27;;;24.77;;
2638;SDS011;1329;51.384;7.122;2024-03-08T08:42:30;28.80;;;23.67;;
2638;SDS011;1329;51.384;7.122;2024-03-08T08:44:57;32.23;;;23.67;;
2638;SDS011;1329;51.384;7.122;2024-03-08T08:47:25;30.23;;;23.33;;
2638;SDS011;1329;51.384;7.122;2024-03-08T08:49:52;29.30;;;23.10;;
2638;SDS011;1329;51.384;7.122;2024-03-08T08:52:19;29.60;;;23.60;;
2638;SDS011;1329;51.384;7.122;2024-03-08T08:54:46;29.33;;;22.90;;
2638;SDS011;1329;51.384;7.122;2024-03-08T08:57:14;29.37;;;23.40;;
2638;SDS011;1329;51.384;7.122;2024-03-08T08:59:42;29.23;;;23.57;;
2638;SDS011;1329;51.384;7.122;2024-03-08T09:02:10;26.90;;;22.27;;
2638;SDS011;1329;51.384;7.122;2024-03-08T09:07:45;26.57;;;21.40;;
2638;SDS011;1329;51.384;7.122;2024-03-08T09:10:32;27.83;;;21.17;;
2638;SDS011;1329;51.384;7.122;2024-03-08T09:14:12;27.53;;;22.17;;
2638;SDS011;1329;51.384;7.122;2024-03-08T09:16:39;28.60;;;23.03;;
2638;SDS011;1329;51.384;7.122;2024-03-08T09:24:36;25.43;;;21.67;;
2638;SDS011;1329;51.384;7.122;2024-03-08T09:27:03;25.30;;;21.27;;
2638;SDS011;1329;51.384;7.122;2024-03-08T09:29:30;25.63;;;21.17;;
2638;SDS011;1329;51.384;7.122;2024-03-08T09:31:57;25.13;;;21.10;;
2638;SDS011;1329;51.384;7.122;2024-03-08T09:34:24;25.27;;;21.27;;
2638;SDS011;1329;51.384;7.122;2024-03-08T09:36:51;25.97;;;20.87;;
2638;SDS011;1329;51.384;7.122;2024-03-08T09:40:11;26.00;;;21.17;;
2638;SDS011;1329;51.384;7.122;2024-03-08T09:43:41;25.30;;;20.33;;
2638;SDS011;1329;51.384;7.122;2024-03-08T09:46:44;23.43;;;20.57;;
2638;SDS011;1329;51.384;7.122;2024-03-08T09:49:27;27.30;;;21.90;;
2638;SDS011;1329;51.384;7.122;2024-03-08T09:52:18;25.03;;;21.20;;
2638;SDS011;1329;51.384;7.122;2024-03-08T09:54:46;25.80;;;21.47;;
2638;SDS011;1329;51.384;7.122;2024-03-08T09:57:14;28.40;;;22.57;;
2638;SDS011;1329;51.384;7.122;2024-03-08T09:59:44;24.37;;;20.67;;
2638;SDS011;1329;51.384;7.122;2024-03-08T10:02:54;22.97;;;19.93;;
2638;SDS011;1329;51.384;7.122;2024-03-08T10:05:46;24.70;;;21.17;;
2638;SDS011;1329;51.384;7.122;2024-03-08T10:08:38;24.23;;;21.33;;
2638;SDS011;1329;51.384;7.122;2024-03-08T10:11:17;24.37;;;20.70;;
2638;SDS011;1329;51.384;7.122;2024-03-08T10:14:05;22.73;;;19.90;;
2638;SDS011;1329;51.384;7.122;2024-03-08T10:16:35;23.73;;;20.13;;
2638;SDS011;1329;51.384;7.122;2024-03-08T10:22:17;23.10;;;19.77;;
2638;SDS011;1329;51.384;7.122;2024-03-08T10:24:44;24.20;;;20.07;;
2638;SDS011;1329;51.384;7.122;2024-03-08T10:27:13;24.03;;;20.23;;
2638;SDS011;1329;51.384;7.122;2024-03-08T10:30:03;23.67;;;19.77;;
2638;SDS011;1329;51.384;7.122;2024-03-08T10:32:33;23.93;;;19.90;;
2638;SDS011;1329;51.384;7.122;2024-03-08T10:35:26;22.47;;;19.40;;
2638;SDS011;1329;51.384;7.122;2024-03-08T10:41:07;22.90;;;19.37;;
2638;SDS011;1329;51.384;7.122;2024-03-08T10:43:40;22.70;;;18.60;;
2638;SDS011;1329;51.384;7.122;2024-03-08T10:46:21;21.80;;;18.63;;
2638;SDS011;1329;51.384;7.122;2024-03-08T10:48:58;20.87;;;18.30;;
2638;SDS011;1329;51.384;7.122;2024-03-08T10:52:02;20.10;;;17.17;;
2638;SDS011;1329;51.384;7.122;2024-03-08T10:54:46;19.30;;;17.17;;
2638;SDS011;1329;51.384;7.122;2024-03-08T11:00:09;20.67;;;17.67;;
2638;SDS011;1329;51.384;7.122;2024-03-08T11:02:38;18.60;;;16.57;;
2638;SDS011;1329;51.384;7.122;2024-03-08T11:05:31;17.87;;;15.97;;
2638;SDS011;1329;51.384;7.122;2024-03-08T11:08:05;18.07;;;15.57;;
2638;SDS011;1329;51.384;7.122;2024-03-08T11:11:29;16.67;;;14.87;;
2638;SDS011;1329;51.384;7.122;2024-03-08T11:26:41;14.70;;;12.83;;
2638;SDS011;1329;51.384;7.122;2024-03-08T11:32:19;13.97;;;12.23;;
2638;SDS011;1329;51.384;7.122;2024-03-08T11:35:21;13.30;;;11.90;;
2638;SDS011;1329;51.384;7.122;2024-03-08T11:38:04;14.20;;;11.87;;
2638;SDS011;1329;51.384;7.122;2024-03-08T11:40:40;12.73;;;11.43;;
2638;SDS011;1329;51.384;7.122;2024-03-08T11:43:07;12.63;;;11.33;;
2638;SDS011;1329;51.384;7.122;2024-03-08T11:45:35;13.87;;;12.37;;
2638;SDS011;1329;51.384;7.122;2024-03-08T11:48:02;13.50;;;12.10;;
2638;SDS011;1329;51.384;7.122;2024-03-08T11:50:32;11.90;;;10.70;;
2638;SDS011;1329;51.384;7.122;2024-03-08T11:53:02;12.90;;;11.60;;
2638;SDS011;1329;51.384;7.122;2024-03-08T11:55:30;12.83;;;11.53;;
2638;SDS011;1329;51.384;7.122;2024-03-08T11:58:15;11.63;;;10.43;;
2638;SDS011;1329;51.384;7.122;2024-03-08T12:01:02;11.70;;;10.50;;
2638;SDS011;1329;51.384;7.122;2024-03-08T12:03:52;11.40;;;10.20;;
2638;SDS011;1329;51.384;7.122;2024-03-08T12:06:21;11.60;;;10.40;;
2638;SDS011;1329;51.384;7.122;2024-03-08T12:08:48;11.53;;;10.33;;
2638;SDS011;1329;51.384;7.122;2024-03-08T12:11:16;12.33;;;11.13;;
2638;SDS011;1329;51.384;7.122;2024-03-08T12:14:03;11.83;;;10.53;;
2638;SDS011;1329;51.384;7.122;2024-03-08T12:16:31;11.43;;;10.17;;
2638;SDS011;1329;51.384;7.122;2024-03-08T12:18:58;12.17;;;10.70;;
2638;SDS011;1329;51.384;7.122;2024-03-08T12:21:30;12.80;;;10.90;;
2638;SDS011;1329;51.384;7.122;2024-03-08T12:24:03;11.80;;;10.57;;
2638;SDS011;1329;51.384;7.122;2024-03-08T12:26:34;10.97;;;9.87;;
2638;SDS011;1329;51.384;7.122;2024-03-08T12:31:47;11.77;;;10.02;;
2638;SDS011;1329;51.384;7.122;2024-03-08T12:34:17;11.20;;;10.00;;
2638;SDS011;1329;51.384;7.122;2024-03-08T12:36:49;10.30;;;9.13;;
2638;SDS011;1329;51.384;7.122;2024-03-08T12:39:37;9.80;;;8.90;;
2638;SDS011;1329;51.384;7.122;2024-03-08T12:42:06;10.70;;;8.77;;
2638;SDS011;1329;51.384;7.122;2024-03-08T12:44:34;10.37;;;9.37;;
2638;SDS011;1329;51.384;7.122;2024-03-08T12:47:07;11.10;;;10.00;;
2638;SDS011;1329;51.384;7.122;2024-03-08T12:49:34;11.43;;;10.23;;
2638;SDS011;1329;51.384;7.122;2024-03-08T12:52:03;10.43;;;9.33;;
2638;SDS011;1329;51.384;7.122;2024-03-08T12:54:35;10.93;;;9.83;;
2638;SDS011;1329;51.384;7.122;2024-03-08T12:57:02;10.23;;;9.23;;
2638;SDS011;1329;51.384;7.122;2024-03-08T12:59:29;9.83;;;8.83;;
2638;SDS011;1329;51.384;7.122;2024-03-08T13:01:56;10.40;;;9.30;;
2638;SDS011;1329;51.384;7.122;2024-03-08T13:04:25;10.60;;;9.03;;
2638;SDS011;1329;51.384;7.122;2024-03-08T13:06:52;9.63;;;8.73;;
2638;SDS011;1329;51.384;7.122;2024-03-08T13:09:22;9.67;;;8.33;;
2638;SDS011;1329;51.384;7.122;2024-03-08T13:11:52;9.38;;;8.48;;
2638;SDS011;1329;51.384;7.122;2024-03-08T13:14:20;9.55;;;8.50;;
2638;SDS011;1329;51.384;7.122;2024-03-08T13:16:47;9.90;;;8.38;;
2638;SDS011;1329;51.384;7.122;2024-03-08T13:19:15;10.07;;;9.07;;
2638;SDS011;1329;51.384;7.122;2024-03-08T13:21:42;9.03;;;8.10;;
2638;SDS011;1329;51.384;7.122;2024-03-08T13:24:14;8.98;;;8.02;;
2638;SDS011;1329;51.384;7.122;2024-03-08T13:26:42;8.50;;;7.70;;
2638;SDS011;1329;51.384;7.122;2024-03-08T13:29:10;8.00;;;7.20;;
2638;SDS011;1329;51.384;7.122;2024-03-08T13:31:37;8.43;;;7.63;;
2638;SDS011;1329;51.384;7.122;2024-03-08T13:34:04;8.38;;;7.43;;
2638;SDS011;1329;51.384;7.122;2024-03-08T13:36:31;9.50;;;7.85;;
2638;SDS011;1329;51.384;7.122;2024-03-08T13:39:08;8.20;;;7.40;;
2638;SDS011;1329;51.384;7.122;2024-03-08T13:41:40;8.23;;;7.35;;
2638;SDS011;1329;51.384;7.122;2024-03-08T13:44:09;8.82;;;7.93;;
2638;SDS011;1329;51.384;7.122;2024-03-08T13:46:36;8.65;;;7.82;;
2638;SDS011;1329;51.384;7.122;2024-03-08T13:49:20;8.90;;;8.00;;
2638;SDS011;1329;51.384;7.122;2024-03-08T13:51:47;8.75;;;7.38;;
2638;SDS011;1329;51.384;7.122;2024-03-08T13:54:14;9.68;;;8.70;;
2638;SDS011;1329;51.384;7.122;2024-03-08T13:56:41;8.85;;;7.95;;
2638;SDS011;1329;51.384;7.122;2024-03-08T13:59:10;9.23;;;8.32;;
2638;SDS011;1329;51.384;7.122;2024-03-08T14:01:37;8.57;;;7.68;;
2638;SDS011;1329;51.384;7.122;2024-03-08T14:04:03;8.18;;;7.47;;
2638;SDS011;1329;51.384;7.122;2024-03-08T14:06:30;8.10;;;7.30;;
2638;SDS011;1329;51.384;7.122;2024-03-08T14:08:57;8.68;;;7.78;;
2638;SDS011;1329;51.384;7.122;2024-03-08T14:11:24;9.88;;;8.25;;
2638;SDS011;1329;51.384;7.122;2024-03-08T14:13:51;9.68;;;8.70;;
2638;SDS011;1329;51.384;7.122;2024-03-08T14:16:20;8.48;;;7.65;;
2638;SDS011;1329;51.384;7.122;2024-03-08T14:18:47;9.85;;;8.45;;
2638;SDS011;1329;51.384;7.122;2024-03-08T14:21:14;9.70;;;8.65;;
2638;SDS011;1329;51.384;7.122;2024-03-08T14:23:42;9.15;;;8.18;;
2638;SDS011;1329;51.384;7.122;2024-03-08T14:26:09;10.13;;;9.10;;
2638;SDS011;1329;51.384;7.122;2024-03-08T14:28:36;10.25;;;9.15;;
2638;SDS011;1329;51.384;7.122;2024-03-08T14:31:03;10.50;;;9.45;;
2638;SDS011;1329;51.384;7.122;2024-03-08T14:33:37;10.75;;;9.10;;
2638;SDS011;1329;51.384;7.122;2024-03-08T14:36:04;10.68;;;9.45;;
2638;SDS011;1329;51.384;7.122;2024-03-08T14:38:32;10.13;;;9.10;;
2638;SDS011;1329;51.384;7.122;2024-03-08T14:40:59;10.35;;;9.25;;
2638;SDS011;1329;51.384;7.122;2024-03-08T14:43:28;10.40;;;9.40;;
2638;SDS011;1329;51.384;7.122;2024-03-08T14:45:57;11.05;;;9.95;;
2638;SDS011;1329;51.384;7.122;2024-03-08T14:48:23;10.07;;;9.10;;
2638;SDS011;1329;51.384;7.122;2024-03-08T14:50:52;11.25;;;10.05;;
2638;SDS011;1329;51.384;7.122;2024-03-08T14:53:18;10.65;;;9.55;;
2638;SDS011;1329;51.384;7.122;2024-03-08T14:55:45;11.50;;;10.30;;
2638;SDS011;1329;51.384;7.122;2024-03-08T14:58:12;11.15;;;10.02;;
2638;SDS011;1329;51.384;7.122;2024-03-08T15:00:39;10.13;;;9.13;;
2638;SDS011;1329;51.384;7.122;2024-03-08T15:03:07;11.20;;;10.00;;
2638;SDS011;1329;51.384;7.122;2024-03-08T15:05:37;11.77;;;10.63;;
2638;SDS011;1329;51.384;7.122;2024-03-08T15:08:08;11.77;;;10.63;;
2638;SDS011;1329;51.384;7.122;2024-03-08T15:10:35;11.15;;;10.05;;
2638;SDS011;1329;51.384;7.122;2024-03-08T15:13:04;10.77;;;9.68;;
2638;SDS011;1329;51.384;7.122;2024-03-08T15:15:39;10.80;;;9.48;;
2638;SDS011;1329;51.384;7.122;2024-03-08T15:18:07;11.48;;;9.85;;
2638;SDS011;1329;51.384;7.122;2024-03-08T15:20:36;10.02;;;8.95;;
2638;SDS011;1329;51.384;7.122;2024-03-08T15:23:03;11.68;;;9.82;;
2638;SDS011;1329;51.384;7.122;2024-03-08T15:25:32;11.20;;;10.00;;
2638;SDS011;1329;51.384;7.122;2024-03-08T15:28:01;11.65;;;10.45;;
2638;SDS011;1329;51.384;7.122;2024-03-08T15:30:29;11.30;;;10.20;;
2638;SDS011;1329;51.384;7.122;2024-03-08T15:32:58;11.18;;;10.07;;
2638;SDS011;1329;51.384;7.122;2024-03-08T15:35:28;11.10;;;9.63;;
2638;SDS011;1329;51.384;7.122;2024-03-08T15:37:57;12.70;;;10.75;;
2638;SDS011;1329;51.384;7.122;2024-03-08T15:40:25;13.40;;;10.98;;
2638;SDS011;1329;51.384;7.122;2024-03-08T15:42:56;11.25;;;10.15;;
2638;SDS011;1329;51.384;7.122;2024-03-08T15:45:23;11.85;;;10.57;;
2638;SDS011;1329;51.384;7.122;2024-03-08T15:47:51;11.90;;;10.70;;
2638;SDS011;1329;51.384;7.122;2024-03-08T15:50:19;12.13;;;10.90;;
2638;SDS011;1329;51.384;7.122;2024-03-08T15:52:48;11.65;;;10.45;;
2638;SDS011;1329;51.384;7.122;2024-03-08T15:55:17;12.55;;;11.23;;
2638;SDS011;1329;51.384;7.122;2024-03-08T15:57:48;12.02;;;10.45;;